sensor_id;sensor_type;location;lat;lon;timestamp;P1;durP1;ratioP1;P2;durP2;ratioP2
3847;SDS011;1939;48.720;9.166;2023-03-01T00:02:09;26.00;;;13.60;;
3847;SDS011;1939;48.720;9.166;2023-03-01T00:04:34;26.33;;;12.80;;
3847;SDS011;1939;48.720;9.166;2023-03-01T00:07:00;22.00;;;11.10;;
3847;SDS011;1939;48.720;9.166;2023-03-01T00:09:25;24.00;;;11.43;;
3847;SDS011;1939;48.720;9.166;2023-03-01T00:11:51;33.33;;;12.60;;
3847;SDS011;1939;48.720;9.166;2023-03-01T00:14:16;22.83;;;12.60;;
3847;SDS011;1939;48.720;9.166;2023-03-01T00:16:43;25.70;;;12.80;;
3847;SDS011;1939;48.720;9.166;2023-03-01T00:19:12;23.80;;;11.77;;
3847;SDS011;1939;48.720;9.166;2023-03-01T00:21:38;24.17;;;12.73;;
3847;SDS011;1939;48.720;9.166;2023-03-01T00:24:03;26.57;;;13.20;;
3847;SDS011;1939;48.720;9.166;2023-03-01T00:26:29;25.23;;;11.80;;
3847;SDS011;1939;48.720;9.166;2023-03-01T00:28:54;22.57;;;11.40;;
3847;SDS011;1939;48.720;9.166;2023-03-01T00:31:23;20.47;;;10.67;;
3847;SDS011;1939;48.720;9.166;2023-03-01T00:33:51;26.73;;;11.93;;
3847;SDS011;1939;48.720;9.166;2023-03-01T00:36:16;23.00;;;12.47;;
3847;SDS011;1939;48.720;9.166;2023-03-01T00:38:43;22.57;;;11.83;;
3847;SDS011;1939;48.720;9.166;2023-03-01T00:41:09;20.97;;;11.50;;
3847;SDS011;1939;48.720;9.166;2023-03-01T00:43:35;22.90;;;12.10;;
3847;SDS011;1939;48.720;9.166;2023-03-01T00:46:03;27.90;;;12.30;;
3847;SDS011;1939;48.720;9.166;2023-03-01T00:48:29;25.00;;;12.30;;
3847;SDS011;1939;48.720;9.166;2023-03-01T00:50:54;26.43;;;11.63;;
3847;SDS011;1939;48.720;9.166;2023-03-01T00:53:19;23.23;;;11.80;;
3847;SDS011;1939;48.720;9.166;2023-03-01T00:55:44;21.47;;;12.20;;
3847;SDS011;1939;48.720;9.166;2023-03-01T00:58:09;26.97;;;12.73;;
3847;SDS011;1939;48.720;9.166;2023-03-01T01:00:35;24.40;;;12.50;;
3847;SDS011;1939;48.720;9.166;2023-03-01T01:03:00;21.53;;;11.90;;
3847;SDS011;1939;48.720;9.166;2023-03-01T01:05:26;24.20;;;12.37;;
3847;SDS011;1939;48.720;9.166;2023-03-01T01:07:51;28.10;;;12.97;;
3847;SDS011;1939;48.720;9.166;2023-03-01T01:10:16;20.27;;;10.60;;
3847;SDS011;1939;48.720;9.166;2023-03-01T01:12:42;18.53;;;10.70;;
3847;SDS011;1939;48.720;9.166;2023-03-01T01:15:08;24.13;;;12.83;;
3847;SDS011;1939;48.720;9.166;2023-03-01T01:17:33;22.53;;;11.63;;
3847;SDS011;1939;48.720;9.166;2023-03-01T01:19:58;25.90;;;13.63;;
3847;SDS011;1939;48.720;9.166;2023-03-01T01:22:23;24.37;;;11.53;;
3847;SDS011;1939;48.720;9.166;2023-03-01T01:24:48;26.97;;;11.60;;
3847;SDS011;1939;48.720;9.166;2023-03-01T01:27:14;22.13;;;11.53;;
3847;SDS011;1939;48.720;9.166;2023-03-01T01:29:39;25.03;;;12.60;;
3847;SDS011;1939;48.720;9.166;2023-03-01T01:32:04;25.13;;;12.60;;
3847;SDS011;1939;48.720;9.166;2023-03-01T01:34:29;27.17;;;12.50;;
3847;SDS011;1939;48.720;9.166;2023-03-01T01:36:55;24.37;;;12.77;;
3847;SDS011;1939;48.720;9.166;2023-03-01T01:39:21;23.30;;;12.87;;
3847;SDS011;1939;48.720;9.166;2023-03-01T01:41:46;25.77;;;12.67;;
3847;SDS011;1939;48.720;9.166;2023-03-01T01:44:13;20.93;;;11.90;;
3847;SDS011;1939;48.720;9.166;2023-03-01T01:49:22;29.40;;;12.00;;
3847;SDS011;1939;48.720;9.166;2023-03-01T01:51:49;26.47;;;13.53;;
3847;SDS011;1939;48.720;9.166;2023-03-01T01:54:18;32.60;;;13.83;;
3847;SDS011;1939;48.720;9.166;2023-03-01T01:56:44;21.97;;;12.40;;
3847;SDS011;1939;48.720;9.166;2023-03-01T01:59:12;25.43;;;12.20;;
3847;SDS011;1939;48.720;9.166;2023-03-01T02:01:38;24.23;;;12.80;;
3847;SDS011;1939;48.720;9.166;2023-03-01T02:04:03;26.03;;;14.47;;
3847;SDS011;1939;48.720;9.166;2023-03-01T02:06:32;22.90;;;12.93;;
3847;SDS011;1939;48.720;9.166;2023-03-01T02:09:00;19.93;;;11.97;;
3847;SDS011;1939;48.720;9.166;2023-03-01T02:11:25;24.73;;;13.03;;
3847;SDS011;1939;48.720;9.166;2023-03-01T02:13:52;27.97;;;13.60;;
3847;SDS011;1939;48.720;9.166;2023-03-01T02:16:18;27.17;;;13.10;;
3847;SDS011;1939;48.720;9.166;2023-03-01T02:18:44;26.63;;;13.77;;
3847;SDS011;1939;48.720;9.166;2023-03-01T02:23:53;26.93;;;13.60;;
3847;SDS011;1939;48.720;9.166;2023-03-01T02:27:02;22.30;;;11.10;;
3847;SDS011;1939;48.720;9.166;2023-03-01T02:29:08;28.47;;;13.37;;
3847;SDS011;1939;48.720;9.166;2023-03-01T02:31:33;28.10;;;12.73;;
3847;SDS011;1939;48.720;9.166;2023-03-01T02:34:09;27.00;;;13.70;;
3847;SDS011;1939;48.720;9.166;2023-03-01T02:36:39;22.03;;;13.30;;
3847;SDS011;1939;48.720;9.166;2023-03-01T02:39:07;31.83;;;13.40;;
3847;SDS011;1939;48.720;9.166;2023-03-01T02:41:39;23.53;;;12.33;;
3847;SDS011;1939;48.720;9.166;2023-03-01T02:44:05;24.30;;;12.63;;
3847;SDS011;1939;48.720;9.166;2023-03-01T02:46:31;31.33;;;13.20;;
3847;SDS011;1939;48.720;9.166;2023-03-01T02:48:57;29.63;;;14.23;;
3847;SDS011;1939;48.720;9.166;2023-03-01T02:54:17;25.90;;;12.40;;
3847;SDS011;1939;48.720;9.166;2023-03-01T02:56:45;28.47;;;13.10;;
3847;SDS011;1939;48.720;9.166;2023-03-01T02:59:13;31.87;;;13.40;;
3847;SDS011;1939;48.720;9.166;2023-03-01T03:01:39;24.57;;;13.33;;
3847;SDS011;1939;48.720;9.166;2023-03-01T03:04:11;27.20;;;12.83;;
3847;SDS011;1939;48.720;9.166;2023-03-01T03:06:41;29.37;;;14.40;;
3847;SDS011;1939;48.720;9.166;2023-03-01T03:09:07;26.17;;;13.67;;
3847;SDS011;1939;48.720;9.166;2023-03-01T03:11:32;24.70;;;13.20;;
3847;SDS011;1939;48.720;9.166;2023-03-01T03:13:58;28.23;;;14.40;;
3847;SDS011;1939;48.720;9.166;2023-03-01T03:16:23;23.67;;;13.17;;
3847;SDS011;1939;48.720;9.166;2023-03-01T03:18:49;27.40;;;13.20;;
3847;SDS011;1939;48.720;9.166;2023-03-01T03:21:15;27.20;;;13.67;;
3847;SDS011;1939;48.720;9.166;2023-03-01T03:23:41;26.27;;;12.60;;
3847;SDS011;1939;48.720;9.166;2023-03-01T03:26:06;27.10;;;13.97;;
3847;SDS011;1939;48.720;9.166;2023-03-01T03:28:32;27.27;;;13.23;;
3847;SDS011;1939;48.720;9.166;2023-03-01T03:30:57;30.80;;;13.43;;
3847;SDS011;1939;48.720;9.166;2023-03-01T03:33:23;31.93;;;13.97;;
3847;SDS011;1939;48.720;9.166;2023-03-01T03:35:49;27.17;;;13.57;;
3847;SDS011;1939;48.720;9.166;2023-03-01T03:38:15;25.07;;;12.80;;
3847;SDS011;1939;48.720;9.166;2023-03-01T03:40:43;28.57;;;13.67;;
3847;SDS011;1939;48.720;9.166;2023-03-01T03:43:18;23.23;;;12.20;;
3847;SDS011;1939;48.720;9.166;2023-03-01T03:45:44;30.00;;;14.73;;
3847;SDS011;1939;48.720;9.166;2023-03-01T03:48:10;23.17;;;13.10;;
3847;SDS011;1939;48.720;9.166;2023-03-01T03:50:35;25.67;;;13.93;;
3847;SDS011;1939;48.720;9.166;2023-03-01T03:53:01;24.57;;;14.17;;
3847;SDS011;1939;48.720;9.166;2023-03-01T03:55:27;26.43;;;13.10;;
3847;SDS011;1939;48.720;9.166;2023-03-01T03:57:56;27.37;;;13.20;;
3847;SDS011;1939;48.720;9.166;2023-03-01T04:00:22;24.93;;;13.43;;
3847;SDS011;1939;48.720;9.166;2023-03-01T04:02:49;26.23;;;14.43;;
3847;SDS011;1939;48.720;9.166;2023-03-01T04:05:15;24.20;;;13.63;;
3847;SDS011;1939;48.720;9.166;2023-03-01T04:07:41;35.30;;;15.23;;
3847;SDS011;1939;48.720;9.166;2023-03-01T04:10:08;35.80;;;15.33;;
3847;SDS011;1939;48.720;9.166;2023-03-01T04:12:33;30.00;;;14.10;;
3847;SDS011;1939;48.720;9.166;2023-03-01T04:15:00;29.33;;;14.87;;
3847;SDS011;1939;48.720;9.166;2023-03-01T04:17:25;28.50;;;14.83;;
3847;SDS011;1939;48.720;9.166;2023-03-01T04:19:51;27.83;;;13.17;;
3847;SDS011;1939;48.720;9.166;2023-03-01T04:22:16;31.50;;;14.80;;
3847;SDS011;1939;48.720;9.166;2023-03-01T04:24:42;27.13;;;13.37;;
3847;SDS011;1939;48.720;9.166;2023-03-01T04:27:08;28.10;;;14.70;;
3847;SDS011;1939;48.720;9.166;2023-03-01T04:29:33;33.90;;;15.70;;
3847;SDS011;1939;48.720;9.166;2023-03-01T04:31:59;29.30;;;13.93;;
3847;SDS011;1939;48.720;9.166;2023-03-01T04:34:24;28.87;;;14.30;;
3847;SDS011;1939;48.720;9.166;2023-03-01T04:36:51;27.00;;;13.57;;
3847;SDS011;1939;48.720;9.166;2023-03-01T04:39:17;32.97;;;15.20;;
3847;SDS011;1939;48.720;9.166;2023-03-01T04:41:42;31.90;;;15.60;;
3847;SDS011;1939;48.720;9.166;2023-03-01T04:44:10;28.43;;;14.97;;
3847;SDS011;1939;48.720;9.166;2023-03-01T04:46:36;32.40;;;14.93;;
3847;SDS011;1939;48.720;9.166;2023-03-01T04:49:02;29.80;;;15.43;;
3847;SDS011;1939;48.720;9.166;2023-03-01T04:51:27;28.20;;;14.77;;
3847;SDS011;1939;48.720;9.166;2023-03-01T04:53:52;32.20;;;16.57;;
3847;SDS011;1939;48.720;9.166;2023-03-01T04:56:18;24.40;;;13.07;;
3847;SDS011;1939;48.720;9.166;2023-03-01T04:58:43;30.27;;;15.47;;
3847;SDS011;1939;48.720;9.166;2023-03-01T05:01:09;27.60;;;15.73;;
3847;SDS011;1939;48.720;9.166;2023-03-01T05:03:40;27.20;;;14.10;;
3847;SDS011;1939;48.720;9.166;2023-03-01T05:06:05;40.23;;;15.10;;
3847;SDS011;1939;48.720;9.166;2023-03-01T05:08:30;32.63;;;15.23;;
3847;SDS011;1939;48.720;9.166;2023-03-01T05:10:59;28.90;;;13.20;;
3847;SDS011;1939;48.720;9.166;2023-03-01T05:13:24;32.37;;;14.10;;
3847;SDS011;1939;48.720;9.166;2023-03-01T05:15:56;26.17;;;13.73;;
3847;SDS011;1939;48.720;9.166;2023-03-01T05:18:22;36.47;;;16.00;;
3847;SDS011;1939;48.720;9.166;2023-03-01T05:20:51;27.47;;;15.07;;
3847;SDS011;1939;48.720;9.166;2023-03-01T05:23:16;30.33;;;16.33;;
3847;SDS011;1939;48.720;9.166;2023-03-01T05:25:43;30.47;;;14.50;;
3847;SDS011;1939;48.720;9.166;2023-03-01T05:28:11;31.17;;;14.80;;
3847;SDS011;1939;48.720;9.166;2023-03-01T05:30:36;29.97;;;14.90;;
3847;SDS011;1939;48.720;9.166;2023-03-01T05:33:04;31.97;;;15.57;;
3847;SDS011;1939;48.720;9.166;2023-03-01T05:35:29;27.63;;;14.20;;
3847;SDS011;1939;48.720;9.166;2023-03-01T05:37:57;28.30;;;14.00;;
3847;SDS011;1939;48.720;9.166;2023-03-01T05:40:23;27.90;;;14.60;;
3847;SDS011;1939;48.720;9.166;2023-03-01T05:42:49;25.33;;;13.70;;
3847;SDS011;1939;48.720;9.166;2023-03-01T05:45:15;26.37;;;14.50;;
3847;SDS011;1939;48.720;9.166;2023-03-01T05:47:41;29.30;;;15.93;;
3847;SDS011;1939;48.720;9.166;2023-03-01T05:50:11;27.37;;;14.70;;
3847;SDS011;1939;48.720;9.166;2023-03-01T05:52:36;29.47;;;14.20;;
3847;SDS011;1939;48.720;9.166;2023-03-01T05:55:01;29.07;;;15.47;;
3847;SDS011;1939;48.720;9.166;2023-03-01T05:57:27;27.60;;;14.40;;
3847;SDS011;1939;48.720;9.166;2023-03-01T05:59:53;30.23;;;15.40;;
3847;SDS011;1939;48.720;9.166;2023-03-01T06:02:18;27.10;;;14.97;;
3847;SDS011;1939;48.720;9.166;2023-03-01T06:04:43;30.27;;;15.93;;
3847;SDS011;1939;48.720;9.166;2023-03-01T06:07:08;28.50;;;15.47;;
3847;SDS011;1939;48.720;9.166;2023-03-01T06:09:33;25.43;;;14.10;;
3847;SDS011;1939;48.720;9.166;2023-03-01T06:11:59;29.93;;;16.60;;
3847;SDS011;1939;48.720;9.166;2023-03-01T06:14:24;33.90;;;15.60;;
3847;SDS011;1939;48.720;9.166;2023-03-01T06:16:50;32.50;;;14.80;;
3847;SDS011;1939;48.720;9.166;2023-03-01T06:19:15;32.37;;;15.00;;
3847;SDS011;1939;48.720;9.166;2023-03-01T06:21:40;26.57;;;13.90;;
3847;SDS011;1939;48.720;9.166;2023-03-01T06:24:05;35.37;;;15.37;;
3847;SDS011;1939;48.720;9.166;2023-03-01T06:26:32;35.17;;;15.50;;
3847;SDS011;1939;48.720;9.166;2023-03-01T06:28:57;31.50;;;14.87;;
3847;SDS011;1939;48.720;9.166;2023-03-01T06:31:22;30.60;;;15.23;;
3847;SDS011;1939;48.720;9.166;2023-03-01T06:33:47;30.30;;;15.47;;
3847;SDS011;1939;48.720;9.166;2023-03-01T06:36:13;26.07;;;13.43;;
3847;SDS011;1939;48.720;9.166;2023-03-01T06:38:38;29.47;;;14.30;;
3847;SDS011;1939;48.720;9.166;2023-03-01T06:41:05;29.37;;;13.93;;
3847;SDS011;1939;48.720;9.166;2023-03-01T06:43:31;25.10;;;13.77;;
3847;SDS011;1939;48.720;9.166;2023-03-01T06:45:57;29.23;;;15.80;;
3847;SDS011;1939;48.720;9.166;2023-03-01T06:48:22;27.30;;;15.10;;
3847;SDS011;1939;48.720;9.166;2023-03-01T06:50:47;29.43;;;15.17;;
3847;SDS011;1939;48.720;9.166;2023-03-01T06:53:12;27.20;;;13.80;;
3847;SDS011;1939;48.720;9.166;2023-03-01T06:55:37;30.83;;;16.63;;
3847;SDS011;1939;48.720;9.166;2023-03-01T06:58:03;29.80;;;15.90;;
3847;SDS011;1939;48.720;9.166;2023-03-01T07:00:28;27.97;;;14.93;;
3847;SDS011;1939;48.720;9.166;2023-03-01T07:02:54;29.13;;;16.23;;
3847;SDS011;1939;48.720;9.166;2023-03-01T07:05:19;26.63;;;14.20;;
3847;SDS011;1939;48.720;9.166;2023-03-01T07:07:44;24.90;;;14.10;;
3847;SDS011;1939;48.720;9.166;2023-03-01T07:10:10;26.83;;;14.60;;
3847;SDS011;1939;48.720;9.166;2023-03-01T07:12:35;23.37;;;13.37;;
3847;SDS011;1939;48.720;9.166;2023-03-01T07:15:00;27.13;;;14.20;;
3847;SDS011;1939;48.720;9.166;2023-03-01T07:17:25;27.73;;;15.00;;
3847;SDS011;1939;48.720;9.166;2023-03-01T07:19:51;29.90;;;14.83;;
3847;SDS011;1939;48.720;9.166;2023-03-01T07:22:16;25.43;;;15.10;;
3847;SDS011;1939;48.720;9.166;2023-03-01T07:24:42;31.63;;;16.37;;
3847;SDS011;1939;48.720;9.166;2023-03-01T07:27:07;25.47;;;14.30;;
3847;SDS011;1939;48.720;9.166;2023-03-01T07:29:32;26.77;;;16.87;;
3847;SDS011;1939;48.720;9.166;2023-03-01T07:31:57;27.47;;;15.07;;
3847;SDS011;1939;48.720;9.166;2023-03-01T07:34:23;29.10;;;17.23;;
3847;SDS011;1939;48.720;9.166;2023-03-01T07:36:48;31.20;;;16.87;;
3847;SDS011;1939;48.720;9.166;2023-03-01T07:39:13;28.93;;;16.70;;
3847;SDS011;1939;48.720;9.166;2023-03-01T07:41:38;35.20;;;17.47;;
3847;SDS011;1939;48.720;9.166;2023-03-01T07:44:04;24.87;;;16.20;;
3847;SDS011;1939;48.720;9.166;2023-03-01T07:46:29;25.80;;;16.43;;
3847;SDS011;1939;48.720;9.166;2023-03-01T07:48:54;25.77;;;15.87;;
3847;SDS011;1939;48.720;9.166;2023-03-01T07:51:19;26.23;;;16.07;;
3847;SDS011;1939;48.720;9.166;2023-03-01T07:53:47;27.30;;;17.83;;
3847;SDS011;1939;48.720;9.166;2023-03-01T07:56:13;29.37;;;16.83;;
3847;SDS011;1939;48.720;9.166;2023-03-01T07:58:42;25.70;;;16.87;;
3847;SDS011;1939;48.720;9.166;2023-03-01T08:01:11;26.80;;;16.50;;
3847;SDS011;1939;48.720;9.166;2023-03-01T08:03:37;33.40;;;18.03;;
3847;SDS011;1939;48.720;9.166;2023-03-01T08:06:03;27.93;;;17.10;;
3847;SDS011;1939;48.720;9.166;2023-03-01T08:08:29;29.93;;;16.80;;
3847;SDS011;1939;48.720;9.166;2023-03-01T08:10:58;29.13;;;17.20;;
3847;SDS011;1939;48.720;9.166;2023-03-01T08:13:23;33.50;;;18.30;;
3847;SDS011;1939;48.720;9.166;2023-03-01T08:15:49;26.10;;;16.07;;
3847;SDS011;1939;48.720;9.166;2023-03-01T08:18:14;29.57;;;17.10;;
3847;SDS011;1939;48.720;9.166;2023-03-01T08:20:40;30.13;;;17.67;;
3847;SDS011;1939;48.720;9.166;2023-03-01T08:23:05;29.13;;;18.07;;
3847;SDS011;1939;48.720;9.166;2023-03-01T08:25:30;31.97;;;18.63;;
3847;SDS011;1939;48.720;9.166;2023-03-01T08:27:55;28.50;;;18.20;;
3847;SDS011;1939;48.720;9.166;2023-03-01T08:30:21;31.07;;;19.23;;
3847;SDS011;1939;48.720;9.166;2023-03-01T08:32:48;28.77;;;18.40;;
3847;SDS011;1939;48.720;9.166;2023-03-01T08:35:14;31.30;;;20.30;;
3847;SDS011;1939;48.720;9.166;2023-03-01T08:37:39;34.00;;;21.20;;
3847;SDS011;1939;48.720;9.166;2023-03-01T08:40:04;35.10;;;20.07;;
3847;SDS011;1939;48.720;9.166;2023-03-01T08:42:32;28.57;;;20.10;;
3847;SDS011;1939;48.720;9.166;2023-03-01T08:44:57;27.80;;;19.07;;
3847;SDS011;1939;48.720;9.166;2023-03-01T08:47:22;30.40;;;20.40;;
3847;SDS011;1939;48.720;9.166;2023-03-01T08:49:48;26.13;;;17.87;;
3847;SDS011;1939;48.720;9.166;2023-03-01T08:52:14;30.83;;;19.90;;
3847;SDS011;1939;48.720;9.166;2023-03-01T08:54:39;28.83;;;18.10;;
3847;SDS011;1939;48.720;9.166;2023-03-01T08:57:04;36.43;;;20.40;;
3847;SDS011;1939;48.720;9.166;2023-03-01T08:59:29;56.33;;;20.13;;
3847;SDS011;1939;48.720;9.166;2023-03-01T09:01:55;27.43;;;18.17;;
3847;SDS011;1939;48.720;9.166;2023-03-01T09:04:20;28.93;;;18.00;;
3847;SDS011;1939;48.720;9.166;2023-03-01T09:06:46;28.60;;;19.27;;
3847;SDS011;1939;48.720;9.166;2023-03-01T09:09:15;35.00;;;19.40;;
3847;SDS011;1939;48.720;9.166;2023-03-01T09:11:41;43.23;;;21.20;;
3847;SDS011;1939;48.720;9.166;2023-03-01T09:14:07;31.50;;;17.20;;
3847;SDS011;1939;48.720;9.166;2023-03-01T09:16:32;28.93;;;17.87;;
3847;SDS011;1939;48.720;9.166;2023-03-01T09:19:01;29.70;;;17.23;;
3847;SDS011;1939;48.720;9.166;2023-03-01T09:21:26;28.10;;;18.30;;
3847;SDS011;1939;48.720;9.166;2023-03-01T09:23:51;32.80;;;19.23;;
3847;SDS011;1939;48.720;9.166;2023-03-01T09:26:17;27.47;;;17.43;;
3847;SDS011;1939;48.720;9.166;2023-03-01T09:28:44;28.23;;;17.63;;
3847;SDS011;1939;48.720;9.166;2023-03-01T09:31:09;27.60;;;18.37;;
3847;SDS011;1939;48.720;9.166;2023-03-01T09:33:37;29.00;;;18.47;;
3847;SDS011;1939;48.720;9.166;2023-03-01T09:36:04;34.73;;;18.57;;
3847;SDS011;1939;48.720;9.166;2023-03-01T09:38:29;27.90;;;18.10;;
3847;SDS011;1939;48.720;9.166;2023-03-01T09:40:55;25.37;;;15.90;;
3847;SDS011;1939;48.720;9.166;2023-03-01T09:43:25;35.37;;;17.67;;
3847;SDS011;1939;48.720;9.166;2023-03-01T09:45:52;35.10;;;19.13;;
3847;SDS011;1939;48.720;9.166;2023-03-01T09:48:20;35.17;;;17.57;;
3847;SDS011;1939;48.720;9.166;2023-03-01T09:50:49;34.13;;;17.93;;
3847;SDS011;1939;48.720;9.166;2023-03-01T09:53:16;25.90;;;16.87;;
3847;SDS011;1939;48.720;9.166;2023-03-01T10:00:47;31.00;;;17.90;;
3847;SDS011;1939;48.720;9.166;2023-03-01T10:03:17;32.17;;;16.73;;
3847;SDS011;1939;48.720;9.166;2023-03-01T10:08:25;27.63;;;15.57;;
3847;SDS011;1939;48.720;9.166;2023-03-01T10:10:51;31.93;;;16.67;;
3847;SDS011;1939;48.720;9.166;2023-03-01T10:16:05;32.13;;;17.90;;
3847;SDS011;1939;48.720;9.166;2023-03-01T10:18:35;29.23;;;17.17;;
3847;SDS011;1939;48.720;9.166;2023-03-01T10:21:07;34.77;;;17.90;;
3847;SDS011;1939;48.720;9.166;2023-03-01T10:23:34;29.67;;;16.53;;
3847;SDS011;1939;48.720;9.166;2023-03-01T10:31:00;24.77;;;15.80;;
3847;SDS011;1939;48.720;9.166;2023-03-01T10:33:26;33.30;;;19.03;;
3847;SDS011;1939;48.720;9.166;2023-03-01T10:35:52;35.40;;;18.80;;
3847;SDS011;1939;48.720;9.166;2023-03-01T10:38:18;32.33;;;18.33;;
3847;SDS011;1939;48.720;9.166;2023-03-01T10:40:55;30.90;;;17.47;;
3847;SDS011;1939;48.720;9.166;2023-03-01T10:43:22;33.93;;;18.03;;
3847;SDS011;1939;48.720;9.166;2023-03-01T10:45:48;27.00;;;15.80;;
3847;SDS011;1939;48.720;9.166;2023-03-01T10:48:14;29.23;;;16.40;;
3847;SDS011;1939;48.720;9.166;2023-03-01T10:50:41;34.13;;;20.20;;
3847;SDS011;1939;48.720;9.166;2023-03-01T10:53:23;30.97;;;18.93;;
3847;SDS011;1939;48.720;9.166;2023-03-01T10:55:56;29.53;;;18.33;;
3847;SDS011;1939;48.720;9.166;2023-03-01T10:58:21;32.70;;;18.50;;
3847;SDS011;1939;48.720;9.166;2023-03-01T11:03:13;34.90;;;17.83;;
3847;SDS011;1939;48.720;9.166;2023-03-01T11:05:53;31.87;;;17.70;;
3847;SDS011;1939;48.720;9.166;2023-03-01T11:08:32;123.70;;;25.63;;
3847;SDS011;1939;48.720;9.166;2023-03-01T11:11:13;33.47;;;18.80;;
3847;SDS011;1939;48.720;9.166;2023-03-01T11:13:47;28.03;;;17.33;;
3847;SDS011;1939;48.720;9.166;2023-03-01T11:16:14;33.20;;;16.60;;
3847;SDS011;1939;48.720;9.166;2023-03-01T11:18:39;28.57;;;17.53;;
3847;SDS011;1939;48.720;9.166;2023-03-01T11:21:04;25.43;;;16.40;;
3847;SDS011;1939;48.720;9.166;2023-03-01T11:23:30;31.53;;;18.97;;
3847;SDS011;1939;48.720;9.166;2023-03-01T11:26:02;33.00;;;17.87;;
3847;SDS011;1939;48.720;9.166;2023-03-01T11:28:29;33.50;;;17.23;;
3847;SDS011;1939;48.720;9.166;2023-03-01T11:36:05;38.13;;;18.10;;
3847;SDS011;1939;48.720;9.166;2023-03-01T11:38:32;31.60;;;17.13;;
3847;SDS011;1939;48.720;9.166;2023-03-01T11:41:00;31.10;;;15.97;;
3847;SDS011;1939;48.720;9.166;2023-03-01T11:48:44;35.37;;;17.50;;
3847;SDS011;1939;48.720;9.166;2023-03-01T11:51:19;28.37;;;16.67;;
3847;SDS011;1939;48.720;9.166;2023-03-01T11:56:20;29.17;;;16.43;;
3847;SDS011;1939;48.720;9.166;2023-03-01T11:58:59;31.60;;;17.63;;
3847;SDS011;1939;48.720;9.166;2023-03-01T12:03:55;26.07;;;15.40;;
3847;SDS011;1939;48.720;9.166;2023-03-01T12:06:32;30.33;;;16.47;;
3847;SDS011;1939;48.720;9.166;2023-03-01T12:09:02;34.23;;;15.87;;
3847;SDS011;1939;48.720;9.166;2023-03-01T12:11:38;27.50;;;17.87;;
3847;SDS011;1939;48.720;9.166;2023-03-01T12:22:04;29.97;;;15.30;;
3847;SDS011;1939;48.720;9.166;2023-03-01T12:29:36;28.77;;;16.10;;
3847;SDS011;1939;48.720;9.166;2023-03-01T12:32:24;23.70;;;15.00;;
3847;SDS011;1939;48.720;9.166;2023-03-01T12:47:55;30.50;;;16.73;;
3847;SDS011;1939;48.720;9.166;2023-03-01T12:50:23;26.00;;;15.50;;
3847;SDS011;1939;48.720;9.166;2023-03-01T12:52:56;26.30;;;16.27;;
3847;SDS011;1939;48.720;9.166;2023-03-01T12:57:54;25.87;;;16.30;;
3847;SDS011;1939;48.720;9.166;2023-03-01T13:00:27;21.97;;;14.10;;
3847;SDS011;1939;48.720;9.166;2023-03-01T13:02:58;26.80;;;15.77;;
3847;SDS011;1939;48.720;9.166;2023-03-01T13:05:34;22.70;;;14.47;;
3847;SDS011;1939;48.720;9.166;2023-03-01T13:08:14;21.23;;;14.40;;
3847;SDS011;1939;48.720;9.166;2023-03-01T13:10:45;27.53;;;15.07;;
3847;SDS011;1939;48.720;9.166;2023-03-01T13:13:24;24.67;;;14.03;;
3847;SDS011;1939;48.720;9.166;2023-03-01T13:15:50;25.63;;;15.13;;
3847;SDS011;1939;48.720;9.166;2023-03-01T13:23:13;27.27;;;14.23;;
3847;SDS011;1939;48.720;9.166;2023-03-01T13:31:08;23.30;;;15.20;;
3847;SDS011;1939;48.720;9.166;2023-03-01T13:36:13;28.13;;;15.00;;
3847;SDS011;1939;48.720;9.166;2023-03-01T13:38:59;32.37;;;16.33;;
3847;SDS011;1939;48.720;9.166;2023-03-01T13:46:49;26.70;;;15.27;;
3847;SDS011;1939;48.720;9.166;2023-03-01T13:49:16;26.87;;;16.10;;
3847;SDS011;1939;48.720;9.166;2023-03-01T13:51:42;23.50;;;12.33;;
3847;SDS011;1939;48.720;9.166;2023-03-01T13:54:11;26.03;;;14.43;;
3847;SDS011;1939;48.720;9.166;2023-03-01T13:56:37;107.43;;;37.83;;
3847;SDS011;1939;48.720;9.166;2023-03-01T13:59:04;22.77;;;13.60;;
3847;SDS011;1939;48.720;9.166;2023-03-01T14:01:34;25.40;;;14.33;;
3847;SDS011;1939;48.720;9.166;2023-03-01T14:04:00;23.47;;;13.87;;
3847;SDS011;1939;48.720;9.166;2023-03-01T14:06:26;27.30;;;13.73;;
3847;SDS011;1939;48.720;9.166;2023-03-01T14:09:00;28.10;;;14.03;;
3847;SDS011;1939;48.720;9.166;2023-03-01T14:11:30;21.70;;;12.97;;
3847;SDS011;1939;48.720;9.166;2023-03-01T14:16:49;25.43;;;15.20;;
3847;SDS011;1939;48.720;9.166;2023-03-01T14:19:21;25.33;;;16.20;;
3847;SDS011;1939;48.720;9.166;2023-03-01T14:21:57;25.80;;;14.30;;
3847;SDS011;1939;48.720;9.166;2023-03-01T14:24:23;26.60;;;15.23;;
3847;SDS011;1939;48.720;9.166;2023-03-01T14:26:49;29.10;;;16.20;;
3847;SDS011;1939;48.720;9.166;2023-03-01T14:34:34;28.67;;;16.27;;
3847;SDS011;1939;48.720;9.166;2023-03-01T14:37:09;24.67;;;16.37;;
3847;SDS011;1939;48.720;9.166;2023-03-01T14:39:35;26.30;;;15.80;;
3847;SDS011;1939;48.720;9.166;2023-03-01T14:42:00;28.93;;;17.30;;
3847;SDS011;1939;48.720;9.166;2023-03-01T14:44:25;26.50;;;15.67;;
3847;SDS011;1939;48.720;9.166;2023-03-01T14:46:54;24.87;;;14.93;;
3847;SDS011;1939;48.720;9.166;2023-03-01T14:49:22;31.60;;;16.50;;
3847;SDS011;1939;48.720;9.166;2023-03-01T14:54:27;27.43;;;16.20;;
3847;SDS011;1939;48.720;9.166;2023-03-01T14:56:57;31.53;;;16.40;;
3847;SDS011;1939;48.720;9.166;2023-03-01T14:59:23;31.53;;;17.03;;
3847;SDS011;1939;48.720;9.166;2023-03-01T15:01:50;29.83;;;16.30;;
3847;SDS011;1939;48.720;9.166;2023-03-01T15:04:16;25.80;;;15.60;;
3847;SDS011;1939;48.720;9.166;2023-03-01T15:06:41;28.20;;;15.73;;
3847;SDS011;1939;48.720;9.166;2023-03-01T15:09:06;27.53;;;14.20;;
3847;SDS011;1939;48.720;9.166;2023-03-01T15:11:33;31.13;;;15.07;;
3847;SDS011;1939;48.720;9.166;2023-03-01T15:13:58;27.93;;;14.90;;
3847;SDS011;1939;48.720;9.166;2023-03-01T15:16:25;25.30;;;14.40;;
3847;SDS011;1939;48.720;9.166;2023-03-01T15:18:55;30.57;;;15.67;;
3847;SDS011;1939;48.720;9.166;2023-03-01T15:21:22;31.57;;;18.60;;
3847;SDS011;1939;48.720;9.166;2023-03-01T15:23:53;24.90;;;15.80;;
3847;SDS011;1939;48.720;9.166;2023-03-01T15:26:23;30.47;;;17.67;;
3847;SDS011;1939;48.720;9.166;2023-03-01T15:28:49;29.00;;;16.20;;
3847;SDS011;1939;48.720;9.166;2023-03-01T15:31:22;29.67;;;16.90;;
3847;SDS011;1939;48.720;9.166;2023-03-01T15:33:48;30.07;;;17.13;;
3847;SDS011;1939;48.720;9.166;2023-03-01T15:38:58;30.97;;;16.60;;
3847;SDS011;1939;48.720;9.166;2023-03-01T15:41:28;29.10;;;17.00;;
3847;SDS011;1939;48.720;9.166;2023-03-01T15:43:56;34.13;;;17.27;;
3847;SDS011;1939;48.720;9.166;2023-03-01T15:46:39;28.90;;;16.73;;
3847;SDS011;1939;48.720;9.166;2023-03-01T15:49:05;36.37;;;17.80;;
3847;SDS011;1939;48.720;9.166;2023-03-01T15:51:44;32.30;;;16.20;;
3847;SDS011;1939;48.720;9.166;2023-03-01T15:54:16;26.73;;;15.43;;
3847;SDS011;1939;48.720;9.166;2023-03-01T15:56:43;28.50;;;15.90;;
3847;SDS011;1939;48.720;9.166;2023-03-01T15:59:09;35.10;;;16.27;;
3847;SDS011;1939;48.720;9.166;2023-03-01T16:01:36;31.67;;;15.20;;
3847;SDS011;1939;48.720;9.166;2023-03-01T16:04:01;24.00;;;14.93;;
3847;SDS011;1939;48.720;9.166;2023-03-01T16:06:27;25.83;;;14.77;;
3847;SDS011;1939;48.720;9.166;2023-03-01T16:08:52;25.30;;;14.00;;
3847;SDS011;1939;48.720;9.166;2023-03-01T16:11:18;30.60;;;14.70;;
3847;SDS011;1939;48.720;9.166;2023-03-01T16:13:44;29.40;;;15.37;;
3847;SDS011;1939;48.720;9.166;2023-03-01T16:16:10;32.67;;;16.40;;
3847;SDS011;1939;48.720;9.166;2023-03-01T16:18:37;30.77;;;18.30;;
3847;SDS011;1939;48.720;9.166;2023-03-01T16:21:03;40.63;;;18.60;;
3847;SDS011;1939;48.720;9.166;2023-03-01T16:23:28;27.63;;;16.53;;
3847;SDS011;1939;48.720;9.166;2023-03-01T16:25:53;29.23;;;15.17;;
3847;SDS011;1939;48.720;9.166;2023-03-01T16:28:18;33.13;;;16.13;;
3847;SDS011;1939;48.720;9.166;2023-03-01T16:30:47;34.03;;;16.27;;